Latest Coastal Weather Observations for Maria Island

IDT60701

Issued at 9:41 am EDT Wednesday 4 March 2015 (issued every 10 minutes, with the page automatically refreshed every 10 minutes)

About coastal observations | Map of coastal stations | Coastal observations for TAS | Marine services | Other Formats
Station Details ID: 092124 Name: MARIA ISLAND (POINT LESUEUR) Lat: -42.66 Lon: 148.02 Height: 28.0 m
Data from the previous 72 hours. | See also: Recent months at Maria Island
Date/Time
EDT
Temp

°C
Wind Pressure Rain
since 9am
mm
Weather Cloud Vis
km
Sea
Height
m
Swell
Dir
 
Speed
knots
Gust
knots
hPa Trend Height
m
Period
s
Dir
04/09:30am 16.3 N 18 21 1003.1 - 0.0 - - - - - - -
04/09:00am 15.8 N 19 22 1003.8 - 3.8 - - - - - - -
04/08:30am 14.9 N 17 20 1004.2 - 3.8 - - - - - - -
04/08:00am 14.5 N 19 22 1003.6 - 3.8 - - - - - - -
04/07:30am 13.8 N 21 23 1003.8 - 3.8 - - - - - - -
04/07:00am 13.9 N 18 23 1004.1 - 3.8 - - - - - - -
04/06:30am 13.6 NNE 15 19 1004.0 - 3.8 - - - - - - -
04/06:00am 13.7 N 17 19 1004.3 - 3.8 - - - - - - -
04/05:30am 13.8 NNW 14 18 1004.7 - 3.8 - - - - - - -
04/05:00am 13.7 NNW 15 20 1004.8 - 3.8 - - - - - - -
04/04:30am 13.3 N 18 22 1004.8 - 3.8 - - - - - - -
04/04:00am 13.5 N 18 21 1005.1 - 3.8 - - - - - - -
04/03:30am 13.3 N 17 20 1005.6 - 3.8 - - - - - - -
04/03:00am 13.8 NNW 15 18 1005.9 - 3.8 - - - - - - -
04/02:30am 13.9 NNW 16 18 1006.6 - 3.8 - - - - - - -
04/02:00am 13.8 NW 18 21 1007.0 - 3.8 - - - - - - -
04/01:30am 13.9 NW 16 19 1007.7 - 3.8 - - - - - - -
04/01:00am 13.9 NW 15 18 1008.2 - 3.8 - - - - - - -
04/12:30am 13.7 WNW 17 21 1008.6 - 3.8 - - - - - - -
04/12:00am 13.8 W 19 25 1008.9 - 3.8 - - - - - - -
 
Date/Time
EDT
Temp

°C
Wind Pressure Rain
since 9am
mm
Weather Cloud Vis
km
Sea
Height
m
Swell
Dir
 
Speed
knots
Gust
knots
hPa Trend Height
m
Period
s
Dir
03/11:30pm 14.1 W 17 22 1009.2 - 3.8 - - - - - - -
03/11:00pm 14.8 W 22 27 1009.2 - 3.8 - - - - - - -
03/10:58pm 14.8 W 21 25 1009.2 - 3.8 - - - - - - -
03/10:30pm 15.2 W 12 15 1009.7 - 3.8 - - - - - - -
03/10:00pm 15.7 NW 8 10 1009.6 - 3.8 - - - - - - -
03/09:30pm 15.9 NNW 5 6 1009.8 - 3.8 - - - - - - -
03/09:00pm 15.6 NNE 5 11 1010.0 - 3.6 Recent precip. - - - - - -
03/08:30pm 15.3 NNE 7 9 1009.9 - 3.6 - - - - - - -
03/08:00pm 15.3 NW 2 5 1010.2 - 3.2 - - - - - - -
03/07:30pm 16.0 NNE 1 2 1010.4 - 0.4 - - - - - - -
03/07:00pm 15.9 NE 6 8 1010.5 - 0.4 - - - - - - -
03/06:30pm 16.2 NNE 10 15 1010.6 - 0.4 - - - - - - -
03/06:00pm 16.2 NNE 12 19 1010.5 - 0.4 - - - - - - -
03/05:30pm 16.5 NE 9 11 1010.9 - 0.4 - - - - - - -
03/05:00pm 17.1 NNE 11 15 1011.1 - 0.4 - - - - - - -
03/04:30pm 17.8 N 13 17 1011.1 - 0.4 - - - - - - -
03/04:00pm 17.5 ESE 9 13 1011.5 - 0.4 - - - - - - -
03/03:30pm 18.0 NW 5 8 1011.6 - 0.4 - - - - - - -
03/03:00pm 17.6 ESE 10 13 1012.1 - 0.4 - - - - - - -
03/02:30pm 17.7 E 10 13 1012.5 - 0.4 - - - - - - -
03/02:00pm 17.7 ESE 8 11 1012.8 - 0.4 - - - - - - -
03/01:30pm 16.6 ESE 8 9 1013.0 - 0.4 - - - - - - -
03/01:00pm 16.3 SSE 7 10 1013.4 - 0.4 - - - - - - -
03/12:30pm 16.8 SSE 5 7 1013.8 - 0.4 - - - - - - -
03/12:00pm 15.5 S 8 10 1014.1 - 0.4 - - - - - - -
03/11:30am 15.4 N 1 2 1014.3 - 0.4 - - - - - - -
03/11:00am 15.9 NNE 3 4 1014.4 - 0.4 - - - - - - -
03/10:30am 15.5 E 3 5 1014.4 - 0.4 - - - - - - -
03/10:00am 14.0 S 2 3 1014.5 - 0.4 - - - - - - -
03/09:30am 12.4 CALM 0 0 1014.4 - 0.4 - - - - - - -
03/09:00am 12.4 S 4 5 1014.5 - 1.0 Rain - - - - - -
03/08:30am 13.7 S 9 11 1014.0 - 0.0 - - - - - - -
03/08:00am 13.9 SSW 4 5 1013.9 - 0.0 - - - - - - -
03/07:30am 13.6 SSE 5 7 1013.4 - 0.0 - - - - - - -
03/07:00am 12.6 W 4 5 1012.9 - 0.0 - - - - - - -
03/06:30am 12.1 WNW 7 8 1012.2 - 0.0 - - - - - - -
03/06:00am 13.1 NW 9 11 1011.6 - 0.0 - - - - - - -
03/05:30am 12.6 NW 10 12 1011.4 - 0.0 - - - - - - -
03/05:00am 13.5 NNW 11 12 1011.2 - 0.0 - - - - - - -
03/04:30am 13.6 NNW 10 12 1011.3 - 0.0 - - - - - - -
03/04:00am 13.9 NNW 12 14 1011.2 - 0.0 - - - - - - -
03/03:30am 14.1 N 14 17 1011.1 - 0.0 - - - - - - -
03/03:00am 14.1 N 14 16 1011.2 - 0.0 - - - - - - -
03/02:30am 14.3 N 11 13 1011.5 - 0.0 - - - - - - -
03/02:00am 14.6 NNW 10 16 1011.9 - 0.0 - - - - - - -
03/01:30am 14.5 NW 11 14 1012.1 - 0.0 - - - - - - -
03/01:00am 14.4 NW 12 14 1012.6 - 0.0 - - - - - - -
03/12:30am 14.6 NNW 11 15 1012.6 - 0.0 - - - - - - -
03/12:00am 15.1 NW 13 15 1012.5 - 0.0 - - - - - - -
 
Date/Time
EDT
Temp

°C
Wind Pressure Rain
since 9am
mm
Weather Cloud Vis
km
Sea
Height
m
Swell
Dir
 
Speed
knots
Gust
knots
hPa Trend Height
m
Period
s
Dir
02/11:30pm 15.1 NW 14 17 1012.6 - 0.0 - - - - - - -
02/11:00pm 15.4 NW 16 20 1012.2 - 0.0 - - - - - - -
02/10:30pm 15.6 NNW 14 17 1012.1 - 0.0 - - - - - - -
02/10:00pm 16.1 NNW 16 18 1011.8 - 0.0 - - - - - - -
02/09:30pm 16.6 NNW 16 19 1011.6 - 0.0 - - - - - - -
02/09:00pm 17.0 N 18 21 1010.9 - 0.0 - - - - - - -
02/08:30pm 17.7 N 20 24 1010.2 - 0.0 - - - - - - -
02/08:00pm 18.1 N 21 23 1010.1 - 0.0 - - - - - - -
02/07:30pm 18.4 N 21 24 1010.2 - 0.0 - - - - - - -
02/07:00pm 19.0 N 18 23 1009.7 - 0.0 - - - - - - -
02/06:30pm 18.1 N 19 26 1009.8 - 0.0 - - - - - - -
02/06:00pm 17.7 N 22 25 1009.9 - 0.0 - - - - - - -
02/05:30pm 17.9 N 24 28 1009.9 - 0.0 - - - - - - -
02/05:00pm 18.0 N 21 25 1010.6 - 0.0 - - - - - - -
02/04:30pm 17.9 NNE 20 26 1010.7 - 0.0 - - - - - - -
02/04:00pm 17.8 NNE 19 24 1011.3 - 0.0 - - - - - - -
02/03:30pm 17.9 NNE 20 24 1011.8 - 0.0 - - - - - - -
02/03:00pm 18.5 NNE 19 24 1012.3 - 0.0 - - - - - - -
02/02:30pm 18.4 NNE 15 21 1013.1 - 0.0 - - - - - - -
02/02:00pm 18.0 NNE 17 21 1013.7 - 0.0 - - - - - - -
02/01:30pm 18.0 N 16 21 1014.3 - 0.0 - - - - - - -
02/01:00pm 17.0 N 13 15 1015.1 - 0.0 - - - - - - -
02/12:30pm 16.4 N 9 11 1016.4 - 0.0 - - - - - - -
02/12:00pm 15.6 NNW 10 13 1017.1 - 0.0 - - - - - - -
02/11:30am 15.0 N 11 13 1017.7 - 0.0 - - - - - - -
02/11:00am 14.9 N 8 11 1018.0 - 0.0 - - - - - - -
02/10:30am 14.0 NNW 5 6 1018.4 - 0.0 - - - - - - -
02/10:00am 13.2 NNE 3 4 1018.5 - 0.0 - - - - - - -
02/09:30am 13.1 N 3 4 1018.5 - 0.0 - - - - - - -
02/09:00am 12.4 WSW 1 3 1018.6 - 0.0 - - - - - - -
02/08:30am 11.9 W 4 5 1018.9 - 0.0 - - - - - - -
02/08:00am 11.5 WNW 1 3 1018.5 - 0.0 - - - - - - -
02/07:30am 10.8 NE 2 3 1018.3 - 0.0 - - - - - - -
02/07:00am 10.8 NE 1 2 1018.3 - 0.0 - - - - - - -
02/06:30am 10.8 N 1 2 1018.4 - 0.0 - - - - - - -
02/06:00am 10.8 WSW 3 5 1018.0 - 0.0 - - - - - - -
02/05:30am 10.6 W 4 6 1018.0 - 0.0 - - - - - - -
02/05:00am 11.0 WSW 7 9 1018.1 - 0.0 - - - - - - -
02/04:30am 11.3 SW 8 10 1017.9 - 0.0 - - - - - - -
02/04:00am 11.3 SW 9 11 1017.9 - 0.0 - - - - - - -
02/03:30am 11.4 SW 9 10 1017.7 - 0.0 - - - - - - -
02/03:00am 11.4 SW 7 9 1017.3 - 0.0 - - - - - - -
02/02:30am 11.0 W 6 7 1017.2 - 0.0 - - - - - - -
02/02:00am 12.1 SW 8 10 1017.3 - 0.0 - - - - - - -
02/01:30am 12.3 SW 11 13 1017.3 - 0.0 - - - - - - -
02/01:00am 12.4 SW 12 15 1017.1 - 0.0 - - - - - - -
02/12:30am 12.5 SW 12 15 1017.0 - 0.0 - - - - - - -
02/12:00am 12.8 SW 14 17 1016.7 - 0.0 - - - - - - -
 
Date/Time
EDT
Temp

°C
Wind Pressure Rain
since 9am
mm
Weather Cloud Vis
km
Sea
Height
m
Swell
Dir
 
Speed
knots
Gust
knots
hPa Trend Height
m
Period
s
Dir
01/11:30pm 13.0 SW 15 19 1016.5 - 0.0 - - - - - - -
01/11:00pm 13.4 SSW 17 20 1016.7 - 0.0 - - - - - - -
01/10:30pm 13.6 SSW 17 19 1016.6 - 0.0 - - - - - - -
01/10:00pm 13.7 SSW 15 20 1016.6 - 0.0 - - - - - - -
01/09:30pm 13.9 SSW 16 19 1016.2 - 0.0 - - - - - - -
01/09:00pm 13.9 SSW 18 21 1015.6 - 0.0 - - - - - - -
01/08:30pm 14.1 SSW 17 20 1014.9 - 0.0 - - - - - - -
01/08:00pm 14.5 SSW 19 22 1014.2 - 0.0 - - - - - - -
01/07:30pm 14.5 SSW 19 24 1013.7 - 0.0 - - - - - - -
01/07:00pm 14.9 SSW 22 25 1013.2 - 0.0 - - - - - - -
01/06:30pm 15.4 S 17 21 1012.7 - 0.0 - - - - - - -
01/06:00pm 15.9 SSW 22 25 1012.0 - 0.0 - - - - - - -
01/05:30pm 16.0 SSW 24 30 1011.2 - 0.0 - - - - - - -
01/05:00pm 16.4 SSW 24 29 1011.1 - 0.0 - - - - - - -
01/04:30pm 16.3 SSW 21 25 1011.0 - 0.0 - - - - - - -
01/04:00pm 17.7 SSW 23 31 1010.3 - 0.0 - - - - - - -
01/03:30pm 17.4 SSW 21 24 1010.1 - 0.0 - - - - - - -
01/03:00pm 17.1 SSW 19 23 1009.7 - 0.0 - - - - - - -
01/02:30pm 16.4 SSW 22 26 1009.2 - 0.0 - - - - - - -
01/02:00pm 17.9 SSW 15 20 1009.1 - 0.0 - - - - - - -
01/01:30pm 18.5 SSW 20 23 1008.5 - 0.0 - - - - - - -
01/01:00pm 17.6 SW 20 24 1008.2 - 0.0 - - - - - - -
01/12:30pm 18.1 SW 17 23 1007.9 - 0.0 - - - - - - -
01/12:00pm 17.9 SSW 19 26 1007.6 - 0.0 - - - - - - -
01/11:30am 16.7 SW 21 27 1007.2 - 0.0 - - - - - - -
01/11:00am 16.7 SW 14 19 1007.0 - 0.0 - - - - - - -
01/10:30am 16.0 SW 16 21 1006.4 - 0.0 - - - - - - -
01/10:00am 16.3 SW 21 26 1005.6 - 0.0 - - - - - - -

Other Formats:

Comma delimited format used in spreadsheet applications
http://www.bom.gov.au/fwo/IDT60701/IDT60701.95988.axf

JavaScript Object Notation format (JSON) in row-major order
http://www.bom.gov.au/fwo/IDT60701/IDT60701.95988.json